createdAt,value
2018-08-22T00:04:01.420Z,1018.45
2018-08-22T00:19:01.533Z,1018.46
2018-08-22T00:24:01.365Z,1018.38
2018-08-22T00:34:01.440Z,1018.44
2018-08-22T00:39:01.461Z,1018.44
2018-08-22T00:44:01.373Z,1018.46
2018-08-22T00:54:01.478Z,1018.41
2018-08-22T01:04:01.448Z,1018.44
2018-08-22T01:09:01.487Z,1018.44
2018-08-22T01:14:01.364Z,1018.39
2018-08-22T01:24:01.498Z,1018.3
2018-08-22T01:34:01.489Z,1018.28
2018-08-22T01:45:01.543Z,1018.22
2018-08-22T01:55:01.452Z,1018.15
2018-08-22T02:00:01.471Z,1018.15
2018-08-22T02:05:01.408Z,1018.08
2018-08-22T02:15:01.518Z,1018.06
2018-08-22T02:50:01.013Z,1017.88
2018-08-22T02:55:00.841Z,1017.91
2018-08-22T03:00:00.986Z,1017.91
2018-08-22T03:05:00.776Z,1017.83
2018-08-22T03:15:05.769Z,1017.69
2018-08-22T03:25:05.780Z,1017.69
2018-08-22T03:30:05.794Z,1017.69
2018-08-22T03:35:05.778Z,1017.61
2018-08-22T03:40:05.776Z,1017.61
2018-08-22T03:45:05.779Z,1017.54
2018-08-22T03:55:01.131Z,1017.45
2018-08-22T04:00:00.814Z,1017.45
2018-08-22T04:05:00.778Z,1017.35
2018-08-22T04:15:00.768Z,1017.33
2018-08-22T04:30:00.907Z,1017.28
2018-08-22T04:35:00.773Z,1017.25
2018-08-22T04:45:00.787Z,1017.26
2018-08-22T04:50:00.782Z,1017.26
2018-08-22T04:55:00.781Z,1017.24
2018-08-22T05:00:00.802Z,1017.24
2018-08-22T05:05:00.773Z,1017.18
2018-08-22T05:15:00.785Z,1017.28
2018-08-22T05:20:00.805Z,1017.28
2018-08-22T05:25:00.782Z,1017.23
2018-08-22T05:30:00.940Z,1017.23
2018-08-22T05:35:00.789Z,1017.08
2018-08-22T05:45:00.764Z,1017.12
2018-08-22T05:50:00.801Z,1017.12
2018-08-22T05:55:00.805Z,1017.11
2018-08-22T06:00:00.812Z,1017.11
2018-08-22T06:05:00.810Z,1016.92
2018-08-22T06:10:00.847Z,1016.92
2018-08-22T06:15:00.826Z,1016.8
2018-08-22T06:20:00.813Z,1016.8
2018-08-22T06:25:00.670Z,1016.71
2018-08-22T06:30:01.022Z,1016.71
2018-08-22T06:35:00.825Z,1016.62
2018-08-22T06:40:00.919Z,1016.62
2018-08-22T06:45:01.084Z,1016.64
2018-08-22T06:50:00.880Z,1016.64
2018-08-22T06:55:00.843Z,1016.54
2018-08-22T07:00:01.018Z,1016.54
2018-08-22T07:05:00.818Z,1016.52
2018-08-22T07:10:00.946Z,1016.52
2018-08-22T07:15:01.028Z,1016.51
2018-08-22T07:20:00.984Z,1016.51
2018-08-22T07:25:00.824Z,1016.59
2018-08-22T07:30:01.222Z,1016.59
2018-08-22T07:35:00.871Z,1016.46
2018-08-22T07:40:00.998Z,1016.46
2018-08-22T07:45:01.026Z,1016.36
2018-08-22T07:50:00.897Z,1016.36
2018-08-22T07:55:00.877Z,1016.3
2018-08-22T08:00:01.155Z,1016.3
2018-08-22T08:05:00.924Z,1016.3
2018-08-22T08:10:00.877Z,1016.3
2018-08-22T08:15:01.003Z,1016.18
2018-08-22T08:20:00.991Z,1016.18
2018-08-22T08:25:00.917Z,1016.11
2018-08-22T08:30:01.045Z,1016.11
2018-08-22T08:35:00.886Z,1016.08
2018-08-22T08:40:01.086Z,1016.08
2018-08-22T08:45:01.018Z,1015.95
2018-08-22T08:50:00.971Z,1015.95
2018-08-22T08:55:00.873Z,1015.86
2018-08-22T09:00:01.171Z,1015.86
2018-08-22T09:05:00.906Z,1015.77
2018-08-22T09:10:00.966Z,1015.77
2018-08-22T09:15:00.980Z,1015.62
2018-08-22T09:20:01.037Z,1015.62
2018-08-22T09:25:00.836Z,1015.48
2018-08-22T09:30:01.221Z,1015.48
2018-08-22T09:35:00.844Z,1015.42
2018-08-22T09:40:01.101Z,1015.42
2018-08-22T09:45:01.082Z,1015.28
2018-08-22T09:50:01.059Z,1015.28
2018-08-22T09:55:00.852Z,1015.25
2018-08-22T10:00:01.551Z,1015.25
2018-08-22T10:05:00.914Z,1015.1
2018-08-22T10:10:01.225Z,1015.1
2018-08-22T10:15:01.285Z,1015.03
2018-08-22T10:20:00.922Z,1015.03
2018-08-22T10:25:00.864Z,1014.89
2018-08-22T10:30:01.196Z,1014.89
2018-08-22T10:35:00.953Z,1014.78
2018-08-22T10:40:01.013Z,1014.78
2018-08-22T10:45:01.041Z,1014.76
2018-08-22T10:55:00.932Z,1014.72
2018-08-22T11:00:01.147Z,1014.72
2018-08-22T11:05:01.054Z,1014.68
2018-08-22T11:10:01.056Z,1014.68
2018-08-22T11:15:01.027Z,1014.64
2018-08-22T11:20:01.086Z,1014.64
2018-08-22T11:25:03.154Z,1014.65
2018-08-22T11:30:01.477Z,1014.65
2018-08-22T11:40:01.025Z,1014.5
2018-08-22T11:45:01.120Z,1014.38
2018-08-22T11:50:01.119Z,1014.38
2018-08-22T11:55:00.929Z,1014.24
2018-08-22T12:00:01.162Z,1014.24
2018-08-22T12:05:00.905Z,1014.24
2018-08-22T12:10:00.982Z,1014.24
2018-08-22T12:15:01.677Z,1014.17
2018-08-22T12:20:01.013Z,1014.17
2018-08-22T12:25:00.889Z,1014.0
2018-08-22T12:30:01.092Z,1014.0
2018-08-22T12:45:01.270Z,1013.92
2018-08-22T12:55:01.161Z,1013.77
2018-08-22T13:00:01.183Z,1013.77
2018-08-22T13:05:00.896Z,1013.66
2018-08-22T13:15:01.168Z,1013.54
2018-08-22T13:20:01.020Z,1013.54
2018-08-22T13:30:01.170Z,1013.45
2018-08-22T13:35:00.933Z,1013.36
2018-08-22T13:45:01.166Z,1013.32
2018-08-22T13:50:00.963Z,1013.32
2018-08-22T14:00:01.190Z,1013.18
2018-08-22T14:05:05.920Z,1013.13
2018-08-22T14:15:06.339Z,1013.09
2018-08-22T14:25:01.120Z,1013.09
2018-08-22T14:30:01.175Z,1013.09
2018-08-22T14:35:05.939Z,1012.97
2018-08-22T14:40:01.057Z,1012.97
2018-08-22T14:45:01.634Z,1012.94
2018-08-22T14:50:01.122Z,1012.94
2018-08-22T15:00:01.271Z,1012.8
2018-08-22T15:05:05.928Z,1012.74
2018-08-22T15:15:01.283Z,1012.64
2018-08-22T15:20:02.089Z,1012.64
2018-08-22T15:25:00.998Z,1012.56
2018-08-22T15:30:01.677Z,1012.56
2018-08-22T15:35:05.958Z,1012.57
2018-08-22T15:45:01.141Z,1012.53
2018-08-22T15:50:01.094Z,1012.53
2018-08-22T16:00:01.217Z,1012.45
2018-08-22T16:05:05.965Z,1012.39
2018-08-22T16:10:01.160Z,1012.39
2018-08-22T16:15:06.096Z,1012.31
2018-08-22T16:20:01.105Z,1012.31
2018-08-22T16:25:01.059Z,1012.2
2018-08-22T16:30:01.142Z,1012.2
2018-08-22T16:35:01.156Z,1012.13
2018-08-22T16:40:01.143Z,1012.13
2018-08-22T16:45:01.242Z,1012.07
2018-08-22T16:50:06.106Z,1012.07
2018-08-22T16:55:06.128Z,1012.06
2018-08-22T17:00:06.112Z,1012.06
2018-08-22T17:05:01.099Z,1011.97
2018-08-22T17:15:01.158Z,1012.03
2018-08-22T17:20:01.100Z,1012.03
2018-08-22T17:25:03.220Z,1011.99
2018-08-22T17:30:01.106Z,1011.99
2018-08-22T17:35:01.130Z,1011.97
2018-08-22T17:40:01.098Z,1011.97
2018-08-22T17:45:01.146Z,1011.93
2018-08-22T17:50:01.148Z,1011.93
2018-08-22T17:55:01.232Z,1011.94
2018-08-22T18:00:01.168Z,1011.94
2018-08-22T18:05:01.513Z,1012.01
2018-08-22T18:10:01.197Z,1012.01
2018-08-22T18:15:01.123Z,1011.97
2018-08-22T18:20:01.226Z,1011.97
2018-08-22T18:25:01.121Z,1011.98
2018-08-22T18:30:01.201Z,1011.98
2018-08-22T18:35:01.521Z,1012.05
2018-08-22T18:40:01.158Z,1012.05
2018-08-22T18:45:01.262Z,1012.02
2018-08-22T18:50:01.116Z,1012.02
2018-08-22T18:55:01.126Z,1012.13
2018-08-22T19:00:01.320Z,1012.13
2018-08-22T19:20:01.561Z,1012.2
2018-08-22T19:25:01.924Z,1012.21
2018-08-22T19:30:01.485Z,1012.21
2018-08-22T19:35:01.550Z,1012.18
2018-08-22T19:45:01.591Z,1012.26
2018-08-22T19:50:01.531Z,1012.26
2018-08-22T19:55:01.414Z,1012.26
2018-08-22T20:00:01.590Z,1012.26
2018-08-22T20:05:01.415Z,1012.3
2018-08-22T20:10:01.417Z,1012.3
2018-08-22T20:15:01.779Z,1012.27
2018-08-22T20:25:01.429Z,1012.25
2018-08-22T20:30:01.484Z,1012.25
2018-08-22T20:35:01.428Z,1012.25
2018-08-22T20:40:01.487Z,1012.25
2018-08-22T20:45:01.471Z,1012.33
2018-08-22T20:55:01.438Z,1012.41
2018-08-22T21:00:01.431Z,1012.41
2018-08-22T21:05:01.488Z,1012.45
2018-08-22T21:10:01.370Z,1012.45
2018-08-22T21:15:01.301Z,1012.46
2018-08-22T21:20:01.380Z,1012.46
2018-08-22T21:30:01.501Z,1012.53
2018-08-22T21:35:01.308Z,1012.54
2018-08-22T21:45:01.501Z,1012.58
2018-08-22T21:50:01.449Z,1012.58
2018-08-22T22:00:01.464Z,1012.55
2018-08-22T22:05:01.491Z,1012.46
2018-08-22T22:10:01.381Z,1012.46
2018-08-22T22:15:01.323Z,1012.44
2018-08-22T22:30:01.488Z,1012.43
2018-08-22T22:35:01.326Z,1012.4
2018-08-22T22:40:01.435Z,1012.4
2018-08-22T22:45:01.392Z,1012.46
2018-08-22T22:50:01.510Z,1012.46
2018-08-22T22:55:01.346Z,1012.41
2018-08-22T23:00:01.555Z,1012.41
2018-08-22T23:05:01.368Z,1012.44
2018-08-22T23:15:01.498Z,1012.38
2018-08-22T23:20:01.484Z,1012.38
2018-08-22T23:25:03.081Z,1012.28
2018-08-22T23:30:01.437Z,1012.28
2018-08-22T23:35:01.356Z,1012.22
2018-08-22T23:45:01.535Z,1012.15
2018-08-22T23:50:01.539Z,1012.15
